createdAt,value
2019-05-19T00:00:17.413Z,14.85
2019-05-19T00:03:23.503Z,14.78
2019-05-19T00:06:30.133Z,14.78
2019-05-19T00:09:33.695Z,14.80
2019-05-19T00:12:37.257Z,14.82
2019-05-19T00:15:40.871Z,14.80
2019-05-19T00:18:44.498Z,14.74
2019-05-19T00:21:49.689Z,14.67
2019-05-19T00:24:56.187Z,14.64
2019-05-19T00:28:01.880Z,14.67
2019-05-19T00:31:07.034Z,14.66
2019-05-19T00:34:10.571Z,14.70
2019-05-19T00:37:14.145Z,14.68
2019-05-19T00:40:20.358Z,14.73
2019-05-19T00:43:24.095Z,14.72
2019-05-19T00:46:27.696Z,14.65
2019-05-19T00:49:40.997Z,14.60
2019-05-19T00:52:36.638Z,14.57
2019-05-19T00:55:42.383Z,14.59
2019-05-19T00:58:46.674Z,14.63
2019-05-19T01:01:53.122Z,14.53
2019-05-19T01:04:56.699Z,14.37
2019-05-19T01:08:00.253Z,14.43
2019-05-19T01:11:05.649Z,14.36
2019-05-19T01:14:09.259Z,14.37
2019-05-19T01:17:12.854Z,14.36
2019-05-19T01:20:16.698Z,14.38
2019-05-19T01:23:20.286Z,14.34
2019-05-19T01:26:23.911Z,14.44
2019-05-19T01:29:29.046Z,14.44
2019-05-19T01:32:34.118Z,14.48
2019-05-19T01:35:39.269Z,14.48
2019-05-19T01:38:42.828Z,14.40
2019-05-19T01:41:46.456Z,14.33
2019-05-19T01:44:51.617Z,14.35
2019-05-19T01:47:55.185Z,14.32
2019-05-19T01:51:01.507Z,14.38
2019-05-19T01:54:07.272Z,14.43
2019-05-19T01:57:12.165Z,14.38
2019-05-19T02:00:16.359Z,14.38
2019-05-19T02:03:22.481Z,14.36
2019-05-19T02:06:27.721Z,14.41
2019-05-19T02:09:31.326Z,14.34
2019-05-19T02:12:37.719Z,14.29
2019-05-19T02:15:41.256Z,14.29
2019-05-19T02:18:46.385Z,14.23
2019-05-19T02:21:49.913Z,14.22
2019-05-19T02:24:56.669Z,14.16
2019-05-19T02:28:02.313Z,14.10
2019-05-19T02:31:05.548Z,14.06
2019-05-19T02:34:10.611Z,14.00
2019-05-19T02:37:16.993Z,13.90
2019-05-19T02:40:21.034Z,13.73
2019-05-19T02:43:27.689Z,13.66
2019-05-19T02:46:33.276Z,13.62
2019-05-19T02:49:39.474Z,13.65
2019-05-19T02:52:45.394Z,13.71
2019-05-19T02:55:51.566Z,13.69
2019-05-19T02:58:56.195Z,13.60
2019-05-19T03:02:02.934Z,13.52
2019-05-19T03:05:10.811Z,13.52
2019-05-19T03:08:14.459Z,13.50
2019-05-19T03:11:18.030Z,13.45
2019-05-19T03:14:21.639Z,13.39
2019-05-19T03:17:27.138Z,13.37
2019-05-19T03:20:33.620Z,13.30
2019-05-19T03:23:41.370Z,13.33
2019-05-19T03:26:46.515Z,13.36
2019-05-19T03:29:51.734Z,13.26
2019-05-19T03:32:56.897Z,13.28
2019-05-19T03:36:00.480Z,13.26
2019-05-19T03:39:07.514Z,13.35
2019-05-19T03:42:14.191Z,13.33
2019-05-19T03:45:19.213Z,13.34
2019-05-19T03:48:22.759Z,13.38
2019-05-19T03:51:30.848Z,13.43
2019-05-19T03:54:31.702Z,13.45
2019-05-19T03:57:36.874Z,13.50
2019-05-19T04:00:44.477Z,13.59
2019-05-19T04:03:48.303Z,13.63
2019-05-19T04:06:51.865Z,13.72
2019-05-19T04:09:57.000Z,13.80
2019-05-19T04:16:14.635Z,14.10
2019-05-19T04:19:18.182Z,14.21
2019-05-19T04:22:23.433Z,14.15
2019-05-19T04:25:27.038Z,14.49
2019-05-19T04:28:33.659Z,14.44
2019-05-19T04:31:38.946Z,14.84
2019-05-19T04:34:49.501Z,15.20
2019-05-19T04:37:53.061Z,15.88
2019-05-19T04:40:56.800Z,16.47
2019-05-19T04:44:00.417Z,16.76
2019-05-19T04:47:14.385Z,17.11
2019-05-19T04:50:16.613Z,16.84
2019-05-19T04:53:23.532Z,16.62
2019-05-19T04:56:27.183Z,16.64
2019-05-19T04:59:30.886Z,17.11
2019-05-19T05:02:36.410Z,17.39
2019-05-19T05:05:42.854Z,17.70
2019-05-19T05:08:48.285Z,16.88
2019-05-19T05:11:52.174Z,16.43
2019-05-19T05:14:59.831Z,16.69
2019-05-19T05:18:03.649Z,16.58
2019-05-19T05:21:10.093Z,16.69
2019-05-19T05:24:13.762Z,17.08
2019-05-19T05:27:17.385Z,17.33
2019-05-19T05:30:21.033Z,17.62
2019-05-19T05:33:24.656Z,17.85
2019-05-19T05:36:28.469Z,18.14
2019-05-19T05:39:32.193Z,18.19
2019-05-19T05:42:35.917Z,18.00
2019-05-19T05:45:39.562Z,17.91
2019-05-19T05:48:43.240Z,18.62
2019-05-19T05:51:46.915Z,19.18
2019-05-19T05:54:50.622Z,18.66
2019-05-19T05:57:54.287Z,18.61
2019-05-19T06:00:57.987Z,18.05
2019-05-19T06:04:01.668Z,18.33
2019-05-19T06:07:05.367Z,18.86
2019-05-19T06:10:09.389Z,19.50
2019-05-19T06:13:15.264Z,19.81
2019-05-19T06:16:21.455Z,20.14
2019-05-19T06:19:25.377Z,19.49
2019-05-19T06:22:29.056Z,19.86
2019-05-19T06:25:32.782Z,20.24
2019-05-19T06:28:36.390Z,20.36
2019-05-19T06:31:40.047Z,20.45
2019-05-19T06:34:43.688Z,21.53
2019-05-19T06:37:47.389Z,20.87
2019-05-19T06:40:51.219Z,21.48
2019-05-19T06:43:54.848Z,21.84
2019-05-19T06:46:58.517Z,21.99
2019-05-19T06:50:02.411Z,21.95
2019-05-19T06:53:14.132Z,21.98
2019-05-19T06:56:15.842Z,21.82
2019-05-19T06:59:16.827Z,21.74
2019-05-19T07:02:20.695Z,22.14
2019-05-19T07:05:24.505Z,21.92
2019-05-19T07:08:28.211Z,22.33
2019-05-19T07:11:31.882Z,22.45
2019-05-19T07:14:35.556Z,21.75
2019-05-19T07:17:39.279Z,22.42
2019-05-19T07:20:45.346Z,21.66
2019-05-19T07:23:49.013Z,21.96
2019-05-19T07:26:52.680Z,21.77
2019-05-19T07:29:56.303Z,22.48
2019-05-19T07:33:00.258Z,22.28
2019-05-19T07:36:03.890Z,22.97
2019-05-19T07:39:08.193Z,23.05
2019-05-19T07:42:11.870Z,23.89
2019-05-19T07:45:15.783Z,23.35
2019-05-19T07:48:19.507Z,23.83
2019-05-19T07:51:23.179Z,23.33
2019-05-19T07:54:26.850Z,23.57
2019-05-19T07:57:30.529Z,23.51
2019-05-19T08:00:34.160Z,24.02
2019-05-19T08:03:39.532Z,23.82
2019-05-19T08:06:43.292Z,24.55
2019-05-19T08:09:46.969Z,24.19
2019-05-19T08:12:50.717Z,24.05
2019-05-19T08:15:54.393Z,23.27
2019-05-19T08:18:58.032Z,23.27
2019-05-19T08:22:01.691Z,23.37
2019-05-19T08:25:08.609Z,22.23
2019-05-19T08:28:13.951Z,23.26
2019-05-19T08:31:17.640Z,22.84
2019-05-19T08:34:21.374Z,23.82
2019-05-19T08:37:24.998Z,24.34
2019-05-19T08:40:28.646Z,24.55
2019-05-19T08:43:32.349Z,23.17
2019-05-19T08:46:36.382Z,23.98
2019-05-19T08:49:42.919Z,24.42
2019-05-19T08:52:46.719Z,24.10
2019-05-19T08:55:50.384Z,24.35
2019-05-19T08:58:55.615Z,24.92
2019-05-19T09:02:00.959Z,25.28
2019-05-19T09:05:06.295Z,25.32
2019-05-19T09:08:10.012Z,24.17
2019-05-19T09:11:13.672Z,24.93
2019-05-19T09:14:17.299Z,25.03
2019-05-19T09:17:20.960Z,25.40
2019-05-19T09:20:24.602Z,25.51
2019-05-19T09:23:28.306Z,25.97
2019-05-19T09:26:31.934Z,26.60
2019-05-19T09:29:35.646Z,26.35
2019-05-19T09:32:39.320Z,25.98
2019-05-19T09:35:43.057Z,26.66
2019-05-19T09:38:46.814Z,26.72
2019-05-19T09:41:50.647Z,27.08
2019-05-19T09:44:54.347Z,26.37
2019-05-19T09:47:57.967Z,26.10
2019-05-19T09:51:01.613Z,27.28
2019-05-19T09:54:05.264Z,27.20
2019-05-19T09:57:08.924Z,26.74
2019-05-19T10:00:12.885Z,28.24
2019-05-19T10:03:19.536Z,28.23
2019-05-19T10:06:22.033Z,28.77
2019-05-19T10:09:47.503Z,28.59
2019-05-19T10:12:51.181Z,29.25
2019-05-19T10:15:54.867Z,29.81
2019-05-19T10:18:58.508Z,29.17
2019-05-19T10:22:02.180Z,29.74
2019-05-19T10:25:20.955Z,31.57
2019-05-19T10:28:13.474Z,30.02
2019-05-19T10:31:17.113Z,29.72
2019-05-19T10:34:20.886Z,30.24
2019-05-19T10:37:24.506Z,28.78
2019-05-19T10:40:28.393Z,31.45
2019-05-19T10:43:32.110Z,32.81
2019-05-19T10:46:35.753Z,31.15
2019-05-19T10:49:39.392Z,32.73
2019-05-19T10:52:43.149Z,33.66
2019-05-19T10:55:46.772Z,33.45
2019-05-19T10:58:50.518Z,29.58
2019-05-19T11:01:54.150Z,29.52
2019-05-19T11:04:57.832Z,30.64
2019-05-19T11:08:01.459Z,30.37
2019-05-19T11:11:05.141Z,30.41
2019-05-19T11:14:08.855Z,29.26
2019-05-19T11:17:12.526Z,29.83
2019-05-19T11:20:16.267Z,30.35
2019-05-19T11:23:19.981Z,29.49
2019-05-19T11:26:23.696Z,30.33
2019-05-19T11:29:27.394Z,32.40
2019-05-19T11:32:31.149Z,32.13
2019-05-19T11:35:34.840Z,31.28
2019-05-19T11:38:38.514Z,31.52
2019-05-19T11:41:42.219Z,29.67
2019-05-19T11:44:45.879Z,30.90
2019-05-19T11:47:49.513Z,30.16
2019-05-19T11:50:53.222Z,30.75
2019-05-19T11:53:56.892Z,31.24
2019-05-19T11:57:00.554Z,31.37
2019-05-19T12:00:05.999Z,30.49
2019-05-19T12:03:09.733Z,29.52
2019-05-19T12:06:13.419Z,30.87
2019-05-19T12:09:17.054Z,30.44
2019-05-19T12:12:26.498Z,29.65
2019-05-19T12:15:31.391Z,28.94
2019-05-19T12:18:34.974Z,27.97
2019-05-19T12:21:38.618Z,29.94
2019-05-19T12:24:42.310Z,31.93
2019-05-19T12:27:46.412Z,29.04
2019-05-19T12:30:50.080Z,28.89
2019-05-19T12:33:53.774Z,29.89
2019-05-19T12:36:57.548Z,29.56
2019-05-19T12:40:02.346Z,28.38
2019-05-19T12:43:07.523Z,28.63
2019-05-19T12:46:16.468Z,29.92
2019-05-19T12:49:18.153Z,31.25
2019-05-19T12:52:21.854Z,29.60
2019-05-19T12:55:25.518Z,28.29
2019-05-19T12:58:29.173Z,30.36
2019-05-19T13:01:32.888Z,29.44
2019-05-19T13:04:36.538Z,31.35
2019-05-19T13:07:40.179Z,31.53
2019-05-19T13:10:43.902Z,30.83
2019-05-19T13:13:47.555Z,31.00
2019-05-19T13:16:51.205Z,32.06
2019-05-19T13:19:54.921Z,32.18
2019-05-19T13:22:59.693Z,31.23
2019-05-19T13:26:03.465Z,29.06
2019-05-19T13:29:09.578Z,28.32
2019-05-19T13:32:14.164Z,29.85
2019-05-19T13:35:17.932Z,28.51
2019-05-19T13:38:21.687Z,28.70
2019-05-19T13:41:25.317Z,28.37
2019-05-19T13:44:29.872Z,29.36
2019-05-19T13:47:33.686Z,29.34
2019-05-19T13:50:37.385Z,29.61
2019-05-19T13:53:41.038Z,29.79
2019-05-19T13:56:44.691Z,30.61
2019-05-19T13:59:48.415Z,30.17
2019-05-19T14:02:52.045Z,32.25
2019-05-19T14:05:55.719Z,30.22
2019-05-19T14:08:59.352Z,30.57
2019-05-19T14:12:02.984Z,29.78
2019-05-19T14:15:08.040Z,30.04
2019-05-19T14:18:11.706Z,29.61
2019-05-19T14:21:15.327Z,27.31
2019-05-19T14:24:19.215Z,26.52
2019-05-19T14:27:30.610Z,26.13
2019-05-19T14:30:28.267Z,26.40
2019-05-19T14:33:31.938Z,26.00
2019-05-19T14:36:35.585Z,25.81
2019-05-19T14:39:40.996Z,25.19
2019-05-19T14:42:46.293Z,25.44
2019-05-19T14:45:49.945Z,25.34
2019-05-19T14:48:53.600Z,25.32
2019-05-19T14:51:57.217Z,25.43
2019-05-19T14:55:00.864Z,25.42
2019-05-19T14:58:04.482Z,25.30
2019-05-19T15:01:08.150Z,25.25
2019-05-19T15:04:11.749Z,25.49
2019-05-19T15:07:15.432Z,25.77
2019-05-19T15:10:20.036Z,25.61
2019-05-19T15:13:23.722Z,25.52
2019-05-19T15:16:27.382Z,25.56
2019-05-19T15:19:31.019Z,25.45
2019-05-19T15:22:34.714Z,25.20
2019-05-19T15:25:38.370Z,25.01
2019-05-19T15:28:41.994Z,24.86
2019-05-19T15:31:48.867Z,24.98
2019-05-19T15:34:52.513Z,24.81
2019-05-19T15:37:56.124Z,24.91
2019-05-19T15:40:59.765Z,24.94
2019-05-19T15:44:03.504Z,24.83
2019-05-19T15:47:07.190Z,24.71
2019-05-19T15:50:11.256Z,24.77
2019-05-19T15:53:14.952Z,24.71
2019-05-19T15:56:18.617Z,24.64
2019-05-19T15:59:22.307Z,24.74
2019-05-19T16:02:25.939Z,24.79
2019-05-19T16:05:29.625Z,24.76
2019-05-19T16:08:33.289Z,24.78
2019-05-19T16:11:36.969Z,24.89
2019-05-19T16:14:40.786Z,24.93
2019-05-19T16:17:44.536Z,24.93
2019-05-19T16:20:48.185Z,24.87
2019-05-19T16:23:51.956Z,24.77
2019-05-19T16:26:55.665Z,24.78
2019-05-19T16:29:59.370Z,24.75
2019-05-19T16:33:03.023Z,24.76
2019-05-19T16:36:08.026Z,24.72
2019-05-19T16:39:11.767Z,24.70
2019-05-19T16:42:15.374Z,24.60
2019-05-19T16:45:19.591Z,24.59
2019-05-19T16:48:23.548Z,24.58
2019-05-19T16:51:27.307Z,24.56
2019-05-19T16:54:47.699Z,24.45
2019-05-19T16:57:51.364Z,24.40
2019-05-19T17:00:54.994Z,24.38
2019-05-19T17:03:58.813Z,24.34
2019-05-19T17:07:03.060Z,24.36
2019-05-19T17:10:09.222Z,24.31
2019-05-19T17:13:12.870Z,24.28
2019-05-19T17:16:16.469Z,24.24
2019-05-19T17:19:20.125Z,24.19
2019-05-19T17:22:23.776Z,24.16
2019-05-19T17:25:27.511Z,24.11
2019-05-19T17:28:31.155Z,24.10
2019-05-19T17:31:34.770Z,24.12
2019-05-19T17:34:38.451Z,24.08
2019-05-19T17:37:42.032Z,24.03
2019-05-19T17:40:45.686Z,24.01
2019-05-19T17:43:49.302Z,23.97
2019-05-19T17:46:53.001Z,23.95
2019-05-19T17:49:56.596Z,23.89
2019-05-19T17:53:00.431Z,23.82
2019-05-19T17:56:04.497Z,23.78
2019-05-19T17:59:16.165Z,23.80
2019-05-19T18:02:13.614Z,23.74
2019-05-19T18:05:17.334Z,23.76
2019-05-19T18:08:20.959Z,23.63
2019-05-19T18:11:24.612Z,23.56
2019-05-19T18:14:28.270Z,23.52
2019-05-19T18:17:31.943Z,23.48
2019-05-19T18:20:35.610Z,23.38
2019-05-19T18:23:39.244Z,23.45
2019-05-19T18:26:42.873Z,23.37
2019-05-19T18:29:46.525Z,23.34
2019-05-19T18:32:50.187Z,23.29
2019-05-19T18:35:53.838Z,23.31
2019-05-19T18:38:57.497Z,23.24
2019-05-19T18:42:01.111Z,23.19
2019-05-19T18:45:06.012Z,23.07
2019-05-19T18:48:09.744Z,22.96
2019-05-19T18:51:13.358Z,22.83
2019-05-19T18:54:17.022Z,22.58
2019-05-19T18:57:20.652Z,22.44
2019-05-19T19:00:35.317Z,22.29
2019-05-19T19:03:39.022Z,22.12
2019-05-19T19:06:42.741Z,21.96
2019-05-19T19:09:46.466Z,21.85
2019-05-19T19:12:51.743Z,21.73
2019-05-19T19:15:58.026Z,21.56
2019-05-19T19:19:01.716Z,21.40
2019-05-19T19:22:07.859Z,21.33
2019-05-19T19:25:12.476Z,21.19
2019-05-19T19:28:16.227Z,21.09
2019-05-19T19:31:19.911Z,20.96
2019-05-19T19:34:23.592Z,20.83
2019-05-19T19:37:27.297Z,20.98
2019-05-19T19:40:31.839Z,21.17
2019-05-19T19:43:35.465Z,21.31
2019-05-19T19:46:39.134Z,21.33
2019-05-19T19:49:42.804Z,21.09
2019-05-19T19:52:46.435Z,20.82
2019-05-19T19:55:50.203Z,20.78
2019-05-19T19:58:54.767Z,20.74
2019-05-19T20:01:58.451Z,20.70
2019-05-19T20:05:02.129Z,20.66
2019-05-19T20:08:06.841Z,20.63
2019-05-19T20:11:10.457Z,20.66
2019-05-19T20:14:14.182Z,20.51
2019-05-19T20:17:17.806Z,20.39
2019-05-19T20:20:24.106Z,20.26
2019-05-19T20:23:26.849Z,20.37
2019-05-19T20:26:30.526Z,20.28
2019-05-19T20:29:34.178Z,20.07
2019-05-19T20:32:37.848Z,20.14
2019-05-19T20:35:44.304Z,20.03
2019-05-19T20:38:49.577Z,19.82
2019-05-19T20:41:55.116Z,19.73
2019-05-19T20:45:00.290Z,19.66
2019-05-19T20:48:10.574Z,19.59
2019-05-19T20:51:15.780Z,19.54
2019-05-19T20:54:19.443Z,19.43
2019-05-19T20:57:23.084Z,19.35
2019-05-19T21:00:28.694Z,19.23
2019-05-19T21:03:32.298Z,19.30
2019-05-19T21:06:35.962Z,19.23
2019-05-19T21:09:39.617Z,19.08
2019-05-19T21:12:46.150Z,19.04
2019-05-19T21:15:51.473Z,18.91
2019-05-19T21:18:55.175Z,18.85
2019-05-19T21:22:01.188Z,18.78
2019-05-19T21:25:06.762Z,18.74
2019-05-19T21:28:10.408Z,18.74
2019-05-19T21:31:14.106Z,18.65
2019-05-19T21:34:17.752Z,18.63
2019-05-19T21:37:21.406Z,18.59
2019-05-19T21:40:25.047Z,18.57
2019-05-19T21:43:28.701Z,18.51
2019-05-19T21:46:32.349Z,18.50
2019-05-19T21:49:36.009Z,18.43
2019-05-19T21:52:43.354Z,18.42
2019-05-19T21:55:46.964Z,18.38
2019-05-19T21:58:50.690Z,18.34
2019-05-19T22:01:54.627Z,18.32
2019-05-19T22:05:01.410Z,18.23
2019-05-19T22:08:08.152Z,18.24
2019-05-19T22:11:11.801Z,18.19
2019-05-19T22:14:15.429Z,18.18
2019-05-19T22:17:19.114Z,18.14
2019-05-19T22:20:22.774Z,18.03
2019-05-19T22:23:26.447Z,18.04
2019-05-19T22:26:31.763Z,18.04
2019-05-19T22:29:35.403Z,17.92
2019-05-19T22:32:39.047Z,17.92
2019-05-19T22:35:42.690Z,17.98
2019-05-19T22:38:46.426Z,17.97
2019-05-19T22:41:50.172Z,17.95
2019-05-19T22:44:53.886Z,17.98
2019-05-19T22:47:57.600Z,18.07
2019-05-19T22:51:01.315Z,18.09
2019-05-19T22:54:05.041Z,18.14
2019-05-19T22:57:08.692Z,18.25
2019-05-19T23:00:13.869Z,18.22
2019-05-19T23:03:17.540Z,18.21
2019-05-19T23:06:21.229Z,18.22
2019-05-19T23:09:24.958Z,18.21
2019-05-19T23:12:28.600Z,18.11
2019-05-19T23:15:34.803Z,18.15
2019-05-19T23:18:38.895Z,18.06
2019-05-19T23:21:44.085Z,18.03
2019-05-19T23:24:49.198Z,17.97
2019-05-19T23:27:54.450Z,17.96
2019-05-19T23:30:58.101Z,17.89
2019-05-19T23:34:03.811Z,17.90
2019-05-19T23:37:16.053Z,17.95
2019-05-19T23:40:18.856Z,17.88
2019-05-19T23:43:21.609Z,17.82
2019-05-19T23:46:25.373Z,17.73
2019-05-19T23:49:30.911Z,17.70
2019-05-19T23:52:37.255Z,17.71
2019-05-19T23:55:43.901Z,17.71
2019-05-19T23:58:47.568Z,17.69
